7NA2 weather

Undlin Airstrip
Lansford, North Dakota, United States

Public forecast

Using degrees Fahrenheit for public forecast. Weather courtesy of forecast.io.

Closest aviation weather report (METAR) to Undlin Airstrip

Closest report is Minot Air Force Base, 16.3 nm (30.3 km) S. Retrieved 2019/12/07 12:56 UTC (1 hour ago):

KMIB 071256Z AUTO 13007KT 10SM FEW120 M05/M06 A2972 RMK AO2 SLPNO T10551065

Closest aviation forecast (TAF) to Undlin Airstrip

Forecast is more than 12 hours old.

Closest forecast is Minot Air Force Base, 16.3 nm (30.3 km) S. Retrieved 2019/12/06 17:20 UTC (21 hours ago):

TAF KMIB 061700Z 0617/0723 19009KT 9999 SCT010 OVC060 QNH2999INS BECMG 0702/0703 VRB06KT 9999 OVC001 620013 QNH2995INS BECMG 0707/0708 VRB06KT 1600 BR OVC001 QNH2967INS BECMG 0715/0716 16009KT 9999 NSW FEW080 SCT120 QNH2956INS TX01/0622Z TNM07/0706Z